sensor_id;sensor_type;location;lat;lon;timestamp;temperature;humidity
20881;DHT22;10600;53.096;8.802;2023-05-14T00:00:22;11.50;99.90
20881;DHT22;10600;53.096;8.802;2023-05-14T00:01:22;11.50;99.90
20881;DHT22;10600;53.096;8.802;2023-05-14T00:02:23;11.50;99.90
20881;DHT22;10600;53.096;8.802;2023-05-14T00:03:24;11.50;99.90
20881;DHT22;10600;53.096;8.802;2023-05-14T00:04:24;11.50;99.90
20881;DHT22;10600;53.096;8.802;2023-05-14T00:05:25;11.60;99.90
20881;DHT22;10600;53.096;8.802;2023-05-14T00:06:26;11.50;99.90
20881;DHT22;10600;53.096;8.802;2023-05-14T00:07:26;11.60;99.90
20881;DHT22;10600;53.096;8.802;2023-05-14T00:08:29;11.60;99.90
20881;DHT22;10600;53.096;8.802;2023-05-14T00:09:31;11.60;99.90
20881;DHT22;10600;53.096;8.802;2023-05-14T00:10:32;11.60;99.90
20881;DHT22;10600;53.096;8.802;2023-05-14T00:11:32;11.60;99.90
20881;DHT22;10600;53.096;8.802;2023-05-14T00:12:33;11.60;99.90
20881;DHT22;10600;53.096;8.802;2023-05-14T00:13:34;11.60;99.90
20881;DHT22;10600;53.096;8.802;2023-05-14T00:14:35;11.60;99.90
20881;DHT22;10600;53.096;8.802;2023-05-14T00:15:36;11.60;99.90
20881;DHT22;10600;53.096;8.802;2023-05-14T00:16:36;11.60;99.90
20881;DHT22;10600;53.096;8.802;2023-05-14T00:17:37;11.60;99.90
20881;DHT22;10600;53.096;8.802;2023-05-14T00:18:38;11.50;99.90
20881;DHT22;10600;53.096;8.802;2023-05-14T00:19:38;11.50;99.90
20881;DHT22;10600;53.096;8.802;2023-05-14T00:20:41;11.50;99.90
20881;DHT22;10600;53.096;8.802;2023-05-14T00:21:42;11.50;99.90
20881;DHT22;10600;53.096;8.802;2023-05-14T00:22:42;11.50;99.90
20881;DHT22;10600;53.096;8.802;2023-05-14T00:23:43;11.50;99.90
20881;DHT22;10600;53.096;8.802;2023-05-14T00:24:43;11.50;99.90
20881;DHT22;10600;53.096;8.802;2023-05-14T00:25:44;11.50;99.90
20881;DHT22;10600;53.096;8.802;2023-05-14T00:26:45;11.50;99.90
20881;DHT22;10600;53.096;8.802;2023-05-14T00:27:45;11.50;99.90
20881;DHT22;10600;53.096;8.802;2023-05-14T00:28:46;11.40;99.90
20881;DHT22;10600;53.096;8.802;2023-05-14T00:29:48;11.40;99.90
20881;DHT22;10600;53.096;8.802;2023-05-14T00:30:49;11.40;99.90
20881;DHT22;10600;53.096;8.802;2023-05-14T00:31:50;11.40;99.90
20881;DHT22;10600;53.096;8.802;2023-05-14T00:32:50;11.30;99.90
20881;DHT22;10600;53.096;8.802;2023-05-14T00:33:51;11.30;99.90
20881;DHT22;10600;53.096;8.802;2023-05-14T00:34:51;11.30;99.90
20881;DHT22;10600;53.096;8.802;2023-05-14T00:35:52;11.30;99.90
20881;DHT22;10600;53.096;8.802;2023-05-14T00:36:53;11.20;99.90
20881;DHT22;10600;53.096;8.802;2023-05-14T00:37:53;11.20;99.90
20881;DHT22;10600;53.096;8.802;2023-05-14T00:38:54;11.20;99.90
20881;DHT22;10600;53.096;8.802;2023-05-14T00:39:55;11.20;99.90
20881;DHT22;10600;53.096;8.802;2023-05-14T00:40:55;11.10;99.90
20881;DHT22;10600;53.096;8.802;2023-05-14T00:41:56;11.10;99.90
20881;DHT22;10600;53.096;8.802;2023-05-14T00:42:57;11.10;99.90
20881;DHT22;10600;53.096;8.802;2023-05-14T00:43:57;11.10;99.90
20881;DHT22;10600;53.096;8.802;2023-05-14T00:44:58;11.10;99.90
20881;DHT22;10600;53.096;8.802;2023-05-14T00:45:59;11.10;99.90
20881;DHT22;10600;53.096;8.802;2023-05-14T00:47:00;11.10;99.90
20881;DHT22;10600;53.096;8.802;2023-05-14T00:48:00;11.10;99.90
20881;DHT22;10600;53.096;8.802;2023-05-14T00:49:01;11.10;99.90
20881;DHT22;10600;53.096;8.802;2023-05-14T00:50:03;11.10;99.90
20881;DHT22;10600;53.096;8.802;2023-05-14T00:51:04;11.10;99.90
20881;DHT22;10600;53.096;8.802;2023-05-14T00:52:06;11.00;99.90
20881;DHT22;10600;53.096;8.802;2023-05-14T00:53:07;11.00;99.90
20881;DHT22;10600;53.096;8.802;2023-05-14T00:54:10;11.00;99.90
20881;DHT22;10600;53.096;8.802;2023-05-14T00:55:12;11.00;99.90
20881;DHT22;10600;53.096;8.802;2023-05-14T00:56:16;11.00;99.90
20881;DHT22;10600;53.096;8.802;2023-05-14T00:57:17;10.90;99.90
20881;DHT22;10600;53.096;8.802;2023-05-14T00:58:18;10.90;99.90
20881;DHT22;10600;53.096;8.802;2023-05-14T00:59:19;11.00;99.90
20881;DHT22;10600;53.096;8.802;2023-05-14T01:00:19;10.90;99.90
20881;DHT22;10600;53.096;8.802;2023-05-14T01:01:20;10.90;99.90
20881;DHT22;10600;53.096;8.802;2023-05-14T01:02:21;11.00;99.90
20881;DHT22;10600;53.096;8.802;2023-05-14T01:03:21;11.00;99.90
20881;DHT22;10600;53.096;8.802;2023-05-14T01:04:22;11.00;99.90
20881;DHT22;10600;53.096;8.802;2023-05-14T01:05:24;11.00;99.90
20881;DHT22;10600;53.096;8.802;2023-05-14T01:10:41;11.00;99.90
20881;DHT22;10600;53.096;8.802;2023-05-14T01:12:07;11.00;99.90
20881;DHT22;10600;53.096;8.802;2023-05-14T01:13:22;11.00;99.90
20881;DHT22;10600;53.096;8.802;2023-05-14T01:14:39;10.90;99.90
20881;DHT22;10600;53.096;8.802;2023-05-14T01:15:43;10.90;99.90
20881;DHT22;10600;53.096;8.802;2023-05-14T01:16:47;10.90;99.90
20881;DHT22;10600;53.096;8.802;2023-05-14T01:17:53;10.80;99.90
20881;DHT22;10600;53.096;8.802;2023-05-14T01:18:56;10.80;99.90
20881;DHT22;10600;53.096;8.802;2023-05-14T01:19:58;10.80;99.90
20881;DHT22;10600;53.096;8.802;2023-05-14T01:21:00;10.80;99.90
20881;DHT22;10600;53.096;8.802;2023-05-14T01:22:01;10.80;99.90
20881;DHT22;10600;53.096;8.802;2023-05-14T01:23:02;10.80;99.90
20881;DHT22;10600;53.096;8.802;2023-05-14T01:24:03;10.80;99.90
20881;DHT22;10600;53.096;8.802;2023-05-14T01:25:05;10.70;99.90
20881;DHT22;10600;53.096;8.802;2023-05-14T01:26:05;10.70;99.90
20881;DHT22;10600;53.096;8.802;2023-05-14T01:28:24;10.60;99.90
20881;DHT22;10600;53.096;8.802;2023-05-14T01:29:28;10.60;99.90
20881;DHT22;10600;53.096;8.802;2023-05-14T01:31:07;10.60;99.90
20881;DHT22;10600;53.096;8.802;2023-05-14T01:32:12;10.60;99.90
20881;DHT22;10600;53.096;8.802;2023-05-14T01:33:16;10.60;99.90
20881;DHT22;10600;53.096;8.802;2023-05-14T01:34:22;10.50;99.90
20881;DHT22;10600;53.096;8.802;2023-05-14T01:35:26;10.50;99.90
20881;DHT22;10600;53.096;8.802;2023-05-14T01:36:27;10.50;99.90
20881;DHT22;10600;53.096;8.802;2023-05-14T01:37:29;10.50;99.90
20881;DHT22;10600;53.096;8.802;2023-05-14T01:38:31;10.40;99.90
20881;DHT22;10600;53.096;8.802;2023-05-14T01:39:34;10.50;99.90
20881;DHT22;10600;53.096;8.802;2023-05-14T01:40:37;10.40;99.90
20881;DHT22;10600;53.096;8.802;2023-05-14T01:41:38;10.40;99.90
20881;DHT22;10600;53.096;8.802;2023-05-14T01:42:40;10.40;99.90
20881;DHT22;10600;53.096;8.802;2023-05-14T01:43:41;10.40;99.90
20881;DHT22;10600;53.096;8.802;2023-05-14T01:44:42;10.40;99.90
20881;DHT22;10600;53.096;8.802;2023-05-14T01:45:43;10.40;99.90
20881;DHT22;10600;53.096;8.802;2023-05-14T01:46:43;10.40;99.90
20881;DHT22;10600;53.096;8.802;2023-05-14T01:47:44;10.40;99.90
20881;DHT22;10600;53.096;8.802;2023-05-14T01:48:44;10.40;99.90
20881;DHT22;10600;53.096;8.802;2023-05-14T01:49:45;10.30;99.90
20881;DHT22;10600;53.096;8.802;2023-05-14T01:50:46;10.40;99.90
20881;DHT22;10600;53.096;8.802;2023-05-14T01:51:46;10.40;99.90
20881;DHT22;10600;53.096;8.802;2023-05-14T01:52:47;10.40;99.90
20881;DHT22;10600;53.096;8.802;2023-05-14T01:53:48;10.40;99.90
20881;DHT22;10600;53.096;8.802;2023-05-14T01:54:49;10.40;99.90
20881;DHT22;10600;53.096;8.802;2023-05-14T01:55:49;10.40;99.90
20881;DHT22;10600;53.096;8.802;2023-05-14T01:56:50;10.30;99.90
20881;DHT22;10600;53.096;8.802;2023-05-14T01:57:51;10.40;99.90
20881;DHT22;10600;53.096;8.802;2023-05-14T01:58:52;10.30;99.90
20881;DHT22;10600;53.096;8.802;2023-05-14T01:59:53;10.30;99.90
20881;DHT22;10600;53.096;8.802;2023-05-14T02:00:53;10.30;99.90
20881;DHT22;10600;53.096;8.802;2023-05-14T02:01:54;10.20;99.90
20881;DHT22;10600;53.096;8.802;2023-05-14T02:02:55;10.20;99.90
20881;DHT22;10600;53.096;8.802;2023-05-14T02:03:56;10.20;99.90
20881;DHT22;10600;53.096;8.802;2023-05-14T02:04:56;10.20;99.90
20881;DHT22;10600;53.096;8.802;2023-05-14T02:05:57;10.20;99.90
20881;DHT22;10600;53.096;8.802;2023-05-14T02:06:57;10.20;99.90
20881;DHT22;10600;53.096;8.802;2023-05-14T02:07:58;10.10;99.90
20881;DHT22;10600;53.096;8.802;2023-05-14T02:08:59;10.10;99.90
20881;DHT22;10600;53.096;8.802;2023-05-14T02:09:59;10.10;99.90
20881;DHT22;10600;53.096;8.802;2023-05-14T02:11:00;10.10;99.90
20881;DHT22;10600;53.096;8.802;2023-05-14T02:12:01;10.10;99.90
20881;DHT22;10600;53.096;8.802;2023-05-14T02:13:02;10.10;99.90
20881;DHT22;10600;53.096;8.802;2023-05-14T02:14:03;10.00;99.90
20881;DHT22;10600;53.096;8.802;2023-05-14T02:15:04;10.00;99.90
20881;DHT22;10600;53.096;8.802;2023-05-14T02:16:05;10.00;99.90
20881;DHT22;10600;53.096;8.802;2023-05-14T02:17:05;10.00;99.90
20881;DHT22;10600;53.096;8.802;2023-05-14T02:18:06;10.00;99.90
20881;DHT22;10600;53.096;8.802;2023-05-14T02:19:07;10.00;99.90
20881;DHT22;10600;53.096;8.802;2023-05-14T02:20:08;9.90;99.90
20881;DHT22;10600;53.096;8.802;2023-05-14T02:21:09;9.90;99.90
20881;DHT22;10600;53.096;8.802;2023-05-14T02:22:10;9.90;99.90
20881;DHT22;10600;53.096;8.802;2023-05-14T02:23:11;9.90;99.90
20881;DHT22;10600;53.096;8.802;2023-05-14T02:24:11;9.90;99.90
20881;DHT22;10600;53.096;8.802;2023-05-14T02:25:12;9.90;99.90
20881;DHT22;10600;53.096;8.802;2023-05-14T02:26:12;9.90;99.90
20881;DHT22;10600;53.096;8.802;2023-05-14T02:27:13;9.90;99.90
20881;DHT22;10600;53.096;8.802;2023-05-14T02:28:14;9.90;99.90
20881;DHT22;10600;53.096;8.802;2023-05-14T02:29:15;9.90;99.90
20881;DHT22;10600;53.096;8.802;2023-05-14T02:30:15;9.90;99.90
20881;DHT22;10600;53.096;8.802;2023-05-14T02:31:16;9.90;99.90
20881;DHT22;10600;53.096;8.802;2023-05-14T02:32:18;9.90;99.90
20881;DHT22;10600;53.096;8.802;2023-05-14T02:33:19;9.90;99.90
20881;DHT22;10600;53.096;8.802;2023-05-14T02:34:19;9.90;99.90
20881;DHT22;10600;53.096;8.802;2023-05-14T02:35:20;9.90;99.90
20881;DHT22;10600;53.096;8.802;2023-05-14T02:36:21;9.90;99.90
20881;DHT22;10600;53.096;8.802;2023-05-14T02:37:21;9.90;99.90
20881;DHT22;10600;53.096;8.802;2023-05-14T02:38:22;9.90;99.90
20881;DHT22;10600;53.096;8.802;2023-05-14T02:39:23;9.90;99.90
20881;DHT22;10600;53.096;8.802;2023-05-14T02:40:23;9.90;99.90
20881;DHT22;10600;53.096;8.802;2023-05-14T02:41:24;9.90;99.90
20881;DHT22;10600;53.096;8.802;2023-05-14T02:42:25;9.90;99.90
20881;DHT22;10600;53.096;8.802;2023-05-14T02:43:26;9.90;99.90
20881;DHT22;10600;53.096;8.802;2023-05-14T02:44:27;9.80;99.90
20881;DHT22;10600;53.096;8.802;2023-05-14T02:45:27;9.80;99.90
20881;DHT22;10600;53.096;8.802;2023-05-14T02:46:29;9.80;99.90
20881;DHT22;10600;53.096;8.802;2023-05-14T02:47:30;9.80;99.90
20881;DHT22;10600;53.096;8.802;2023-05-14T02:48:31;9.80;99.90
20881;DHT22;10600;53.096;8.802;2023-05-14T02:49:31;9.80;99.90
20881;DHT22;10600;53.096;8.802;2023-05-14T02:50:32;9.80;99.90
20881;DHT22;10600;53.096;8.802;2023-05-14T02:51:32;9.80;99.90
20881;DHT22;10600;53.096;8.802;2023-05-14T02:52:33;9.80;99.90
20881;DHT22;10600;53.096;8.802;2023-05-14T02:53:34;9.80;99.90
20881;DHT22;10600;53.096;8.802;2023-05-14T02:54:34;9.90;99.90
20881;DHT22;10600;53.096;8.802;2023-05-14T02:55:35;9.80;99.90
20881;DHT22;10600;53.096;8.802;2023-05-14T02:56:36;9.80;99.90
20881;DHT22;10600;53.096;8.802;2023-05-14T02:57:36;9.80;99.90
20881;DHT22;10600;53.096;8.802;2023-05-14T02:58:37;9.80;99.90
20881;DHT22;10600;53.096;8.802;2023-05-14T02:59:37;9.80;99.90
20881;DHT22;10600;53.096;8.802;2023-05-14T03:00:38;9.80;99.90
20881;DHT22;10600;53.096;8.802;2023-05-14T03:01:39;9.80;99.90
20881;DHT22;10600;53.096;8.802;2023-05-14T03:02:39;9.80;99.90
20881;DHT22;10600;53.096;8.802;2023-05-14T03:03:40;9.80;99.90
20881;DHT22;10600;53.096;8.802;2023-05-14T03:04:40;9.90;99.90
20881;DHT22;10600;53.096;8.802;2023-05-14T03:05:41;9.90;99.90
20881;DHT22;10600;53.096;8.802;2023-05-14T03:06:42;9.90;99.90
20881;DHT22;10600;53.096;8.802;2023-05-14T03:07:42;9.90;99.90
20881;DHT22;10600;53.096;8.802;2023-05-14T03:08:43;9.90;99.90
20881;DHT22;10600;53.096;8.802;2023-05-14T03:09:43;9.90;99.90
20881;DHT22;10600;53.096;8.802;2023-05-14T03:10:44;9.90;99.90
20881;DHT22;10600;53.096;8.802;2023-05-14T03:11:45;9.90;99.90
20881;DHT22;10600;53.096;8.802;2023-05-14T03:12:46;9.90;99.90
20881;DHT22;10600;53.096;8.802;2023-05-14T03:13:46;9.90;99.90
20881;DHT22;10600;53.096;8.802;2023-05-14T03:14:47;9.90;99.90
20881;DHT22;10600;53.096;8.802;2023-05-14T03:15:48;10.00;99.90
20881;DHT22;10600;53.096;8.802;2023-05-14T03:16:48;10.00;99.90
20881;DHT22;10600;53.096;8.802;2023-05-14T03:17:49;10.00;99.90
20881;DHT22;10600;53.096;8.802;2023-05-14T03:18:50;10.00;99.90
20881;DHT22;10600;53.096;8.802;2023-05-14T03:19:50;10.00;99.90
20881;DHT22;10600;53.096;8.802;2023-05-14T03:20:51;10.00;99.90
20881;DHT22;10600;53.096;8.802;2023-05-14T03:21:52;10.00;99.90
20881;DHT22;10600;53.096;8.802;2023-05-14T03:22:52;10.00;99.90
20881;DHT22;10600;53.096;8.802;2023-05-14T03:23:53;10.00;99.90
20881;DHT22;10600;53.096;8.802;2023-05-14T03:24:54;10.00;99.90
20881;DHT22;10600;53.096;8.802;2023-05-14T03:25:55;10.10;99.90
20881;DHT22;10600;53.096;8.802;2023-05-14T03:26:56;10.10;99.90
20881;DHT22;10600;53.096;8.802;2023-05-14T03:27:56;10.10;99.90
20881;DHT22;10600;53.096;8.802;2023-05-14T03:28:57;10.10;99.90
20881;DHT22;10600;53.096;8.802;2023-05-14T03:29:57;10.10;99.90
20881;DHT22;10600;53.096;8.802;2023-05-14T03:30:58;10.10;99.90
20881;DHT22;10600;53.096;8.802;2023-05-14T03:31:59;10.10;99.90
20881;DHT22;10600;53.096;8.802;2023-05-14T03:32:59;10.10;99.90
20881;DHT22;10600;53.096;8.802;2023-05-14T03:34:00;10.10;99.90
20881;DHT22;10600;53.096;8.802;2023-05-14T03:35:01;10.10;99.90
20881;DHT22;10600;53.096;8.802;2023-05-14T03:36:01;10.10;99.90
20881;DHT22;10600;53.096;8.802;2023-05-14T03:37:02;10.10;99.90
20881;DHT22;10600;53.096;8.802;2023-05-14T03:38:03;10.10;99.90
20881;DHT22;10600;53.096;8.802;2023-05-14T03:39:04;10.10;99.90
20881;DHT22;10600;53.096;8.802;2023-05-14T03:40:06;10.00;99.90
20881;DHT22;10600;53.096;8.802;2023-05-14T03:41:07;10.10;99.90
20881;DHT22;10600;53.096;8.802;2023-05-14T03:42:08;10.00;99.90
20881;DHT22;10600;53.096;8.802;2023-05-14T03:43:08;10.00;99.90
20881;DHT22;10600;53.096;8.802;2023-05-14T03:44:09;10.00;99.90
20881;DHT22;10600;53.096;8.802;2023-05-14T03:45:10;10.00;99.90
20881;DHT22;10600;53.096;8.802;2023-05-14T03:46:10;10.00;99.90
20881;DHT22;10600;53.096;8.802;2023-05-14T03:47:11;10.10;99.90
20881;DHT22;10600;53.096;8.802;2023-05-14T03:48:11;10.00;99.90
20881;DHT22;10600;53.096;8.802;2023-05-14T03:49:12;10.10;99.90
20881;DHT22;10600;53.096;8.802;2023-05-14T03:50:13;10.10;99.90
20881;DHT22;10600;53.096;8.802;2023-05-14T03:51:13;10.10;99.90
20881;DHT22;10600;53.096;8.802;2023-05-14T03:52:14;10.10;99.90
20881;DHT22;10600;53.096;8.802;2023-05-14T03:53:15;10.10;99.90
20881;DHT22;10600;53.096;8.802;2023-05-14T03:54:16;10.10;99.90
20881;DHT22;10600;53.096;8.802;2023-05-14T03:55:20;10.20;99.90
20881;DHT22;10600;53.096;8.802;2023-05-14T03:56:21;10.20;99.90
20881;DHT22;10600;53.096;8.802;2023-05-14T03:57:22;10.20;99.90
20881;DHT22;10600;53.096;8.802;2023-05-14T03:58:22;10.20;99.90
20881;DHT22;10600;53.096;8.802;2023-05-14T03:59:23;10.20;99.90
20881;DHT22;10600;53.096;8.802;2023-05-14T04:00:23;10.20;99.90
20881;DHT22;10600;53.096;8.802;2023-05-14T04:01:24;10.20;99.90
20881;DHT22;10600;53.096;8.802;2023-05-14T04:02:25;10.20;99.90
20881;DHT22;10600;53.096;8.802;2023-05-14T04:03:26;10.20;99.90
20881;DHT22;10600;53.096;8.802;2023-05-14T04:04:26;10.20;99.90
20881;DHT22;10600;53.096;8.802;2023-05-14T04:05:27;10.30;99.90
20881;DHT22;10600;53.096;8.802;2023-05-14T04:06:27;10.30;99.90
20881;DHT22;10600;53.096;8.802;2023-05-14T04:07:28;10.20;99.90
20881;DHT22;10600;53.096;8.802;2023-05-14T04:08:29;10.20;99.90
20881;DHT22;10600;53.096;8.802;2023-05-14T04:09:29;10.20;99.90
20881;DHT22;10600;53.096;8.802;2023-05-14T04:10:30;10.20;99.90
20881;DHT22;10600;53.096;8.802;2023-05-14T04:11:31;10.30;99.90
20881;DHT22;10600;53.096;8.802;2023-05-14T04:12:32;10.30;99.90
20881;DHT22;10600;53.096;8.802;2023-05-14T04:13:32;10.30;99.90
20881;DHT22;10600;53.096;8.802;2023-05-14T04:14:33;10.30;99.90
20881;DHT22;10600;53.096;8.802;2023-05-14T04:15:34;10.30;99.90
20881;DHT22;10600;53.096;8.802;2023-05-14T04:16:38;10.30;99.90
20881;DHT22;10600;53.096;8.802;2023-05-14T04:17:39;10.30;99.90
20881;DHT22;10600;53.096;8.802;2023-05-14T04:18:40;10.30;99.90
20881;DHT22;10600;53.096;8.802;2023-05-14T04:19:40;10.40;99.90
20881;DHT22;10600;53.096;8.802;2023-05-14T04:20:41;10.40;99.90
20881;DHT22;10600;53.096;8.802;2023-05-14T04:21:41;10.40;99.90
20881;DHT22;10600;53.096;8.802;2023-05-14T04:22:42;10.40;99.90
20881;DHT22;10600;53.096;8.802;2023-05-14T04:23:43;10.50;99.90
20881;DHT22;10600;53.096;8.802;2023-05-14T04:24:43;10.50;99.90
20881;DHT22;10600;53.096;8.802;2023-05-14T04:25:44;10.50;99.90
20881;DHT22;10600;53.096;8.802;2023-05-14T04:26:44;10.60;99.90
20881;DHT22;10600;53.096;8.802;2023-05-14T04:27:45;10.60;99.90
20881;DHT22;10600;53.096;8.802;2023-05-14T04:28:46;10.60;99.90
20881;DHT22;10600;53.096;8.802;2023-05-14T04:29:50;10.70;99.90
20881;DHT22;10600;53.096;8.802;2023-05-14T04:30:51;10.70;99.90
20881;DHT22;10600;53.096;8.802;2023-05-14T04:31:52;10.80;99.90
20881;DHT22;10600;53.096;8.802;2023-05-14T04:32:52;10.90;99.90
20881;DHT22;10600;53.096;8.802;2023-05-14T04:33:53;10.90;99.90
20881;DHT22;10600;53.096;8.802;2023-05-14T04:34:54;10.90;99.90
20881;DHT22;10600;53.096;8.802;2023-05-14T04:35:55;11.00;99.90
20881;DHT22;10600;53.096;8.802;2023-05-14T04:36:55;11.00;99.90
20881;DHT22;10600;53.096;8.802;2023-05-14T04:37:56;11.10;99.90
20881;DHT22;10600;53.096;8.802;2023-05-14T04:38:57;11.10;99.90
20881;DHT22;10600;53.096;8.802;2023-05-14T04:39:57;11.20;99.90
20881;DHT22;10600;53.096;8.802;2023-05-14T04:40:58;11.20;99.90
20881;DHT22;10600;53.096;8.802;2023-05-14T04:41:59;11.30;99.90
20881;DHT22;10600;53.096;8.802;2023-05-14T04:42:59;11.30;99.90
20881;DHT22;10600;53.096;8.802;2023-05-14T04:44:01;11.30;99.90
20881;DHT22;10600;53.096;8.802;2023-05-14T04:45:02;11.40;99.90
20881;DHT22;10600;53.096;8.802;2023-05-14T04:46:04;11.40;99.90
20881;DHT22;10600;53.096;8.802;2023-05-14T04:47:05;11.50;99.90
20881;DHT22;10600;53.096;8.802;2023-05-14T04:48:06;11.50;99.90
20881;DHT22;10600;53.096;8.802;2023-05-14T04:49:08;11.50;99.90
20881;DHT22;10600;53.096;8.802;2023-05-14T04:50:08;11.60;99.90
20881;DHT22;10600;53.096;8.802;2023-05-14T04:51:09;11.60;99.90
20881;DHT22;10600;53.096;8.802;2023-05-14T04:52:10;11.70;99.90
20881;DHT22;10600;53.096;8.802;2023-05-14T04:53:10;11.70;99.90
20881;DHT22;10600;53.096;8.802;2023-05-14T04:54:11;11.80;99.90
20881;DHT22;10600;53.096;8.802;2023-05-14T04:55:11;11.80;99.90
20881;DHT22;10600;53.096;8.802;2023-05-14T04:56:12;11.90;99.90
20881;DHT22;10600;53.096;8.802;2023-05-14T04:57:13;11.90;99.90
20881;DHT22;10600;53.096;8.802;2023-05-14T04:58:13;12.00;99.90
20881;DHT22;10600;53.096;8.802;2023-05-14T04:59:14;12.00;99.90
20881;DHT22;10600;53.096;8.802;2023-05-14T05:00:16;12.00;99.90
20881;DHT22;10600;53.096;8.802;2023-05-14T05:01:17;12.00;99.90
20881;DHT22;10600;53.096;8.802;2023-05-14T05:02:17;12.00;99.90
20881;DHT22;10600;53.096;8.802;2023-05-14T05:03:18;12.10;99.90
20881;DHT22;10600;53.096;8.802;2023-05-14T05:04:18;12.10;99.90
20881;DHT22;10600;53.096;8.802;2023-05-14T05:05:19;12.20;99.90
20881;DHT22;10600;53.096;8.802;2023-05-14T05:06:20;12.20;99.90
20881;DHT22;10600;53.096;8.802;2023-05-14T05:07:21;12.20;99.90
20881;DHT22;10600;53.096;8.802;2023-05-14T05:08:22;12.30;99.90
20881;DHT22;10600;53.096;8.802;2023-05-14T05:09:22;12.30;99.90
20881;DHT22;10600;53.096;8.802;2023-05-14T05:10:23;12.40;99.90
20881;DHT22;10600;53.096;8.802;2023-05-14T05:11:23;12.40;99.90
20881;DHT22;10600;53.096;8.802;2023-05-14T05:12:24;12.50;99.90
20881;DHT22;10600;53.096;8.802;2023-05-14T05:13:25;12.50;99.90
20881;DHT22;10600;53.096;8.802;2023-05-14T05:14:26;12.60;99.90
20881;DHT22;10600;53.096;8.802;2023-05-14T05:15:26;12.70;99.90
20881;DHT22;10600;53.096;8.802;2023-05-14T05:16:27;12.70;99.90
20881;DHT22;10600;53.096;8.802;2023-05-14T05:17:28;12.80;99.90
20881;DHT22;10600;53.096;8.802;2023-05-14T05:18:29;12.80;99.90
20881;DHT22;10600;53.096;8.802;2023-05-14T05:19:30;12.80;99.90
20881;DHT22;10600;53.096;8.802;2023-05-14T05:20:30;12.90;99.90
20881;DHT22;10600;53.096;8.802;2023-05-14T05:21:31;12.90;99.90
20881;DHT22;10600;53.096;8.802;2023-05-14T05:22:32;13.00;99.90
20881;DHT22;10600;53.096;8.802;2023-05-14T05:23:33;13.10;99.90
20881;DHT22;10600;53.096;8.802;2023-05-14T05:24:33;13.20;99.90
20881;DHT22;10600;53.096;8.802;2023-05-14T05:25:34;13.30;99.90
20881;DHT22;10600;53.096;8.802;2023-05-14T05:26:35;13.40;99.90
20881;DHT22;10600;53.096;8.802;2023-05-14T05:27:36;13.50;99.90
20881;DHT22;10600;53.096;8.802;2023-05-14T05:28:36;13.70;99.90
20881;DHT22;10600;53.096;8.802;2023-05-14T05:29:37;13.70;99.90
20881;DHT22;10600;53.096;8.802;2023-05-14T05:30:38;13.80;99.90
20881;DHT22;10600;53.096;8.802;2023-05-14T05:31:39;14.00;99.90
20881;DHT22;10600;53.096;8.802;2023-05-14T05:32:39;14.00;99.90
20881;DHT22;10600;53.096;8.802;2023-05-14T05:33:40;14.10;99.90
20881;DHT22;10600;53.096;8.802;2023-05-14T05:34:41;14.20;99.90
20881;DHT22;10600;53.096;8.802;2023-05-14T05:35:42;14.30;99.90
20881;DHT22;10600;53.096;8.802;2023-05-14T05:36:43;14.40;99.90
20881;DHT22;10600;53.096;8.802;2023-05-14T05:37:44;14.50;99.90
20881;DHT22;10600;53.096;8.802;2023-05-14T05:38:45;14.50;99.90
20881;DHT22;10600;53.096;8.802;2023-05-14T05:39:45;14.60;99.90
20881;DHT22;10600;53.096;8.802;2023-05-14T05:40:47;14.70;99.90
20881;DHT22;10600;53.096;8.802;2023-05-14T05:41:48;14.70;99.90
20881;DHT22;10600;53.096;8.802;2023-05-14T05:42:48;14.80;99.90
20881;DHT22;10600;53.096;8.802;2023-05-14T05:43:49;14.90;99.90
20881;DHT22;10600;53.096;8.802;2023-05-14T05:44:50;14.90;99.90
20881;DHT22;10600;53.096;8.802;2023-05-14T05:45:50;15.00;99.90
20881;DHT22;10600;53.096;8.802;2023-05-14T05:46:51;15.10;99.90
20881;DHT22;10600;53.096;8.802;2023-05-14T05:47:51;15.10;99.90
20881;DHT22;10600;53.096;8.802;2023-05-14T05:48:52;15.20;99.90
20881;DHT22;10600;53.096;8.802;2023-05-14T05:49:53;15.20;99.90
20881;DHT22;10600;53.096;8.802;2023-05-14T05:50:53;15.20;99.90
20881;DHT22;10600;53.096;8.802;2023-05-14T05:51:54;15.30;99.90
20881;DHT22;10600;53.096;8.802;2023-05-14T05:52:55;15.30;99.90
20881;DHT22;10600;53.096;8.802;2023-05-14T05:53:55;15.40;99.90
20881;DHT22;10600;53.096;8.802;2023-05-14T05:54:56;15.50;99.90
20881;DHT22;10600;53.096;8.802;2023-05-14T05:55:57;15.50;99.90
20881;DHT22;10600;53.096;8.802;2023-05-14T05:56:58;15.60;99.90
20881;DHT22;10600;53.096;8.802;2023-05-14T05:57:59;15.70;99.90
20881;DHT22;10600;53.096;8.802;2023-05-14T05:58:59;15.70;99.90
20881;DHT22;10600;53.096;8.802;2023-05-14T06:00:00;15.80;99.90
20881;DHT22;10600;53.096;8.802;2023-05-14T06:01:08;15.80;99.90
20881;DHT22;10600;53.096;8.802;2023-05-14T06:02:08;15.90;99.90
20881;DHT22;10600;53.096;8.802;2023-05-14T06:03:10;16.00;99.90
20881;DHT22;10600;53.096;8.802;2023-05-14T06:04:10;16.00;99.90
20881;DHT22;10600;53.096;8.802;2023-05-14T06:05:11;16.10;99.90
20881;DHT22;10600;53.096;8.802;2023-05-14T06:06:12;16.10;99.90
20881;DHT22;10600;53.096;8.802;2023-05-14T06:07:13;16.20;99.90
20881;DHT22;10600;53.096;8.802;2023-05-14T06:08:14;16.20;99.90
20881;DHT22;10600;53.096;8.802;2023-05-14T06:09:15;16.20;99.90
20881;DHT22;10600;53.096;8.802;2023-05-14T06:10:16;16.20;99.90
20881;DHT22;10600;53.096;8.802;2023-05-14T06:11:16;16.30;99.90
20881;DHT22;10600;53.096;8.802;2023-05-14T06:12:17;16.40;99.90
20881;DHT22;10600;53.096;8.802;2023-05-14T06:13:18;16.50;99.90
20881;DHT22;10600;53.096;8.802;2023-05-14T06:14:18;16.50;99.90
20881;DHT22;10600;53.096;8.802;2023-05-14T06:15:19;16.60;99.90
20881;DHT22;10600;53.096;8.802;2023-05-14T06:16:20;16.70;99.90
20881;DHT22;10600;53.096;8.802;2023-05-14T06:17:20;16.80;99.90
20881;DHT22;10600;53.096;8.802;2023-05-14T06:18:21;16.80;99.90
20881;DHT22;10600;53.096;8.802;2023-05-14T06:19:22;16.90;99.90
20881;DHT22;10600;53.096;8.802;2023-05-14T06:20:22;16.90;99.90
20881;DHT22;10600;53.096;8.802;2023-05-14T06:21:23;17.00;99.90
20881;DHT22;10600;53.096;8.802;2023-05-14T06:22:24;17.00;99.90
20881;DHT22;10600;53.096;8.802;2023-05-14T06:23:25;17.10;99.90
20881;DHT22;10600;53.096;8.802;2023-05-14T06:24:25;17.10;99.90
20881;DHT22;10600;53.096;8.802;2023-05-14T06:25:26;17.10;99.90
20881;DHT22;10600;53.096;8.802;2023-05-14T06:26:27;17.20;99.90
20881;DHT22;10600;53.096;8.802;2023-05-14T06:27:27;17.20;99.90
20881;DHT22;10600;53.096;8.802;2023-05-14T06:28:28;17.30;99.90
20881;DHT22;10600;53.096;8.802;2023-05-14T06:29:28;17.30;99.90
20881;DHT22;10600;53.096;8.802;2023-05-14T06:30:29;17.40;99.90
20881;DHT22;10600;53.096;8.802;2023-05-14T06:31:30;17.40;99.90
20881;DHT22;10600;53.096;8.802;2023-05-14T06:32:30;17.40;99.90